Terminal Aerodrome Forecast
Issued by NWS

Home | Current Version | Previous Version | Text Only | Print | Product List | Glossary On
Versions: 1 2 3 4 5 6 7 8 9 10 11 12 13
000
FTUS46 KSTO 191100
TAFSCK
TAF
KSCK 191138Z 1912/2012 28010KT P6SM FEW250
     FM192000 30011G18KT P6SM FEW250
     FM200300 28010KT P6SM SKC=

USA.gov is the U.S. government's official web portal to all federal, state and local government web resources and services.